createdAt,value
2022-12-31T00:01:26.844Z,60.58
2022-12-31T00:03:56.079Z,60.69
2022-12-31T00:06:34.411Z,60.76
2022-12-31T00:09:07.203Z,60.88
2022-12-31T00:11:36.550Z,60.60
2022-12-31T00:14:05.724Z,60.45
2022-12-31T00:16:38.136Z,60.35
2022-12-31T00:19:09.031Z,60.42
2022-12-31T00:21:38.884Z,60.73
2022-12-31T00:24:08.094Z,60.95
2022-12-31T00:26:36.345Z,61.21
2022-12-31T00:29:05.575Z,61.52
2022-12-31T00:31:38.545Z,61.99
2022-12-31T00:34:07.324Z,61.91
2022-12-31T00:36:38.977Z,61.59
2022-12-31T00:39:08.625Z,61.51
2022-12-31T00:41:36.553Z,61.73
2022-12-31T00:44:04.867Z,61.78
2022-12-31T00:46:33.022Z,61.49
2022-12-31T00:49:01.041Z,61.51
2022-12-31T00:51:29.558Z,61.52
2022-12-31T00:53:58.399Z,61.23
2022-12-31T00:56:30.577Z,61.04
2022-12-31T00:59:00.407Z,61.48
2022-12-31T01:01:33.010Z,61.23
2022-12-31T01:04:06.073Z,61.23
2022-12-31T01:06:34.711Z,60.88
2022-12-31T01:09:04.356Z,60.69
2022-12-31T01:11:33.379Z,60.75
2022-12-31T01:14:06.570Z,60.83
2022-12-31T01:16:42.140Z,60.42
2022-12-31T01:19:25.265Z,60.31
2022-12-31T01:21:54.179Z,60.17
2022-12-31T01:24:22.495Z,59.64
2022-12-31T01:26:51.526Z,58.47
2022-12-31T01:29:19.673Z,60.31
2022-12-31T01:31:47.601Z,63.35
2022-12-31T01:34:15.467Z,64.29
2022-12-31T01:36:43.372Z,62.78
2022-12-31T01:39:12.274Z,61.52
2022-12-31T01:41:44.992Z,61.03
2022-12-31T01:44:12.849Z,60.43
2022-12-31T01:46:44.255Z,60.40
2022-12-31T01:49:45.460Z,59.70
2022-12-31T01:52:32.728Z,59.15
2022-12-31T01:55:26.365Z,61.40
2022-12-31T01:58:01.659Z,64.36
2022-12-31T02:00:29.670Z,63.69
2022-12-31T02:02:58.004Z,61.76
2022-12-31T02:05:38.412Z,61.36
2022-12-31T02:08:07.689Z,60.78
2022-12-31T02:10:35.743Z,60.38
2022-12-31T02:13:03.967Z,60.51
2022-12-31T02:16:20.038Z,60.17
2022-12-31T02:19:18.594Z,59.32
2022-12-31T02:22:22.940Z,61.02
2022-12-31T02:25:15.960Z,64.39
2022-12-31T02:28:30.197Z,63.77
2022-12-31T02:31:22.090Z,62.78
2022-12-31T02:34:13.659Z,62.01
2022-12-31T02:36:46.964Z,62.02
2022-12-31T02:39:15.867Z,61.68
2022-12-31T02:41:52.584Z,61.22
2022-12-31T02:44:35.038Z,61.08
2022-12-31T02:47:09.168Z,61.07
2022-12-31T02:50:01.702Z,60.69
2022-12-31T02:52:57.251Z,60.41
2022-12-31T02:55:49.366Z,60.31
2022-12-31T02:58:51.540Z,60.56
2022-12-31T03:01:46.994Z,60.20
2022-12-31T03:04:32.503Z,60.16
2022-12-31T03:07:04.693Z,59.96
2022-12-31T03:09:33.631Z,59.92
2022-12-31T03:12:21.939Z,58.95
2022-12-31T03:14:50.536Z,59.46
2022-12-31T03:17:18.484Z,61.85
2022-12-31T03:20:05.331Z,65.34
2022-12-31T03:22:39.583Z,65.07
2022-12-31T03:25:33.501Z,64.25
2022-12-31T03:28:14.083Z,62.98
2022-12-31T03:30:47.095Z,61.79
2022-12-31T03:33:16.199Z,61.71
2022-12-31T03:35:46.881Z,61.75
2022-12-31T03:38:17.212Z,61.63
2022-12-31T03:40:49.631Z,61.90
2022-12-31T03:43:19.669Z,61.97
2022-12-31T03:45:52.844Z,62.20
2022-12-31T03:48:23.317Z,62.25
2022-12-31T03:50:51.683Z,62.86
2022-12-31T03:53:19.973Z,63.15
2022-12-31T03:55:54.676Z,63.48
2022-12-31T03:58:22.909Z,63.74
2022-12-31T04:00:51.365Z,63.72
2022-12-31T04:03:19.375Z,64.06
2022-12-31T04:05:54.458Z,64.21
2022-12-31T04:08:22.959Z,64.20
2022-12-31T04:10:51.085Z,64.28
2022-12-31T04:13:18.953Z,64.85
2022-12-31T04:15:51.459Z,65.55
2022-12-31T04:18:19.493Z,65.97
2022-12-31T04:20:47.420Z,66.46
2022-12-31T04:23:15.287Z,66.84
2022-12-31T04:25:43.110Z,67.26
2022-12-31T04:28:11.025Z,67.18
2022-12-31T04:30:40.160Z,67.38
2022-12-31T04:33:08.087Z,67.87
2022-12-31T04:35:35.967Z,68.16
2022-12-31T04:38:04.123Z,68.42
2022-12-31T04:40:32.419Z,68.51
2022-12-31T04:43:00.316Z,68.27
2022-12-31T04:45:28.237Z,68.02
2022-12-31T04:47:56.170Z,67.62
2022-12-31T04:50:23.997Z,67.44
2022-12-31T04:52:51.840Z,67.18
2022-12-31T04:55:19.625Z,67.45
2022-12-31T04:57:47.534Z,67.39
2022-12-31T05:00:15.738Z,67.41
2022-12-31T05:02:43.765Z,67.48
2022-12-31T05:05:11.719Z,67.26
2022-12-31T05:07:39.610Z,67.32
2022-12-31T05:10:08.323Z,67.12
2022-12-31T05:12:36.262Z,67.30
2022-12-31T05:15:04.646Z,67.72
2022-12-31T05:17:32.512Z,67.68
2022-12-31T05:20:00.301Z,67.60
2022-12-31T05:22:31.446Z,67.81
2022-12-31T05:25:00.826Z,67.82
2022-12-31T05:27:31.423Z,67.82
2022-12-31T05:30:00.288Z,67.53
2022-12-31T05:32:28.399Z,67.90
2022-12-31T05:34:57.905Z,67.98
2022-12-31T05:37:28.480Z,67.94
2022-12-31T05:39:57.109Z,68.19
2022-12-31T05:42:25.813Z,68.30
2022-12-31T05:44:53.613Z,68.23
2022-12-31T05:47:21.946Z,68.01
2022-12-31T05:49:50.284Z,67.92
2022-12-31T05:52:20.360Z,67.99
2022-12-31T05:54:48.313Z,67.83
2022-12-31T05:57:16.321Z,68.34
2022-12-31T05:59:44.181Z,64.31
2022-12-31T06:02:12.052Z,64.40
2022-12-31T06:04:39.933Z,65.96
2022-12-31T06:07:07.785Z,65.89
2022-12-31T06:09:35.620Z,64.32
2022-12-31T06:12:03.721Z,64.21
2022-12-31T06:14:31.794Z,64.19
2022-12-31T06:16:59.727Z,64.09
2022-12-31T06:19:27.975Z,65.77
2022-12-31T06:21:55.991Z,66.16
2022-12-31T06:24:24.044Z,65.83
2022-12-31T06:26:51.848Z,65.22
2022-12-31T06:29:19.800Z,65.78
2022-12-31T06:31:47.651Z,66.88
2022-12-31T06:34:15.613Z,66.89
2022-12-31T06:36:43.431Z,66.68
2022-12-31T06:39:11.298Z,66.40
2022-12-31T06:41:39.265Z,65.96
2022-12-31T06:44:07.191Z,67.24
2022-12-31T06:46:35.073Z,67.57
2022-12-31T06:49:03.129Z,67.65
2022-12-31T06:51:31.032Z,67.94
2022-12-31T06:53:58.862Z,68.82
2022-12-31T06:56:34.731Z,68.87
2022-12-31T06:59:05.119Z,67.97
2022-12-31T07:02:26.317Z,68.58
2022-12-31T07:05:21.124Z,69.01
2022-12-31T07:08:26.038Z,68.41
2022-12-31T07:11:02.025Z,68.12
2022-12-31T07:14:28.535Z,67.52
2022-12-31T07:17:13.745Z,67.40
2022-12-31T07:20:05.012Z,67.42
2022-12-31T07:22:33.564Z,67.74
2022-12-31T07:25:02.176Z,67.99
2022-12-31T07:28:02.692Z,68.06
2022-12-31T07:30:48.576Z,67.88
2022-12-31T07:33:42.222Z,68.08
2022-12-31T07:36:44.748Z,67.92
2022-12-31T07:39:41.604Z,68.09
2022-12-31T07:42:49.709Z,68.41
2022-12-31T07:45:47.833Z,68.23
2022-12-31T07:48:28.448Z,67.71
2022-12-31T07:50:58.213Z,68.38
2022-12-31T07:53:27.317Z,68.89
2022-12-31T07:56:00.227Z,68.55
2022-12-31T07:58:53.385Z,69.10
2022-12-31T08:01:46.781Z,69.47
2022-12-31T08:04:32.513Z,70.35
2022-12-31T08:07:30.101Z,69.50
2022-12-31T08:10:17.735Z,69.76
2022-12-31T08:12:50.316Z,70.55
2022-12-31T08:15:20.590Z,71.12
2022-12-31T08:17:51.387Z,71.34
2022-12-31T08:20:19.912Z,71.43
2022-12-31T08:23:32.031Z,70.73
2022-12-31T08:26:28.446Z,69.69
2022-12-31T08:29:22.146Z,68.92
2022-12-31T08:32:08.419Z,68.01
2022-12-31T08:35:18.792Z,67.52
2022-12-31T08:38:27.516Z,68.31
2022-12-31T08:41:32.862Z,69.59
2022-12-31T08:44:36.310Z,69.75
2022-12-31T08:47:42.430Z,70.37
2022-12-31T08:50:17.490Z,70.77
2022-12-31T08:52:48.451Z,70.52
2022-12-31T08:55:19.551Z,70.60
2022-12-31T08:57:55.877Z,70.63
2022-12-31T09:00:24.391Z,71.21
2022-12-31T09:03:17.184Z,71.29
2022-12-31T09:06:06.241Z,71.12
2022-12-31T09:08:47.910Z,71.09
2022-12-31T09:11:53.466Z,71.21
2022-12-31T09:14:44.151Z,71.00
2022-12-31T09:17:24.099Z,70.80
2022-12-31T09:19:52.386Z,70.80
2022-12-31T09:22:20.781Z,70.70
2022-12-31T09:25:08.057Z,70.50
2022-12-31T09:27:52.344Z,70.52
2022-12-31T09:30:20.433Z,70.78
2022-12-31T09:33:55.716Z,70.69
2022-12-31T09:36:38.304Z,70.77
2022-12-31T09:39:19.837Z,70.79
2022-12-31T09:42:40.893Z,70.88
2022-12-31T09:45:57.643Z,71.19
2022-12-31T09:49:08.565Z,71.44
2022-12-31T09:51:48.193Z,69.78
2022-12-31T09:54:22.139Z,69.32
2022-12-31T09:57:24.333Z,68.47
2022-12-31T10:00:11.089Z,68.28
2022-12-31T10:03:25.366Z,67.95
2022-12-31T10:06:24.679Z,67.92
2022-12-31T10:09:48.653Z,68.06
2022-12-31T10:13:20.283Z,68.09
2022-12-31T10:16:13.295Z,68.56
2022-12-31T10:19:06.912Z,68.60
2022-12-31T10:22:14.405Z,67.82
2022-12-31T10:24:45.307Z,68.69
2022-12-31T10:27:44.230Z,69.18
2022-12-31T10:30:22.971Z,69.90
2022-12-31T10:33:00.710Z,70.80
2022-12-31T10:35:48.699Z,71.57
2022-12-31T10:38:34.592Z,71.19
2022-12-31T10:41:37.084Z,71.03
2022-12-31T10:45:09.063Z,70.58
2022-12-31T10:47:58.010Z,70.74
2022-12-31T10:51:05.205Z,70.75
2022-12-31T10:54:07.213Z,69.99
2022-12-31T10:57:33.074Z,69.67
2022-12-31T11:00:23.118Z,69.39
2022-12-31T11:03:32.155Z,69.17
2022-12-31T11:06:15.249Z,69.99
2022-12-31T11:09:39.620Z,69.93
2022-12-31T11:12:38.717Z,70.42
2022-12-31T11:15:21.884Z,70.31
2022-12-31T11:18:39.309Z,70.41
2022-12-31T11:21:48.234Z,70.44
2022-12-31T11:24:37.302Z,70.62
2022-12-31T11:27:30.698Z,71.10
2022-12-31T11:30:05.625Z,71.45
2022-12-31T11:33:10.462Z,71.08
2022-12-31T11:36:08.185Z,70.70
2022-12-31T11:39:36.922Z,71.70
2022-12-31T11:42:40.828Z,71.89
2022-12-31T11:45:50.497Z,71.73
2022-12-31T11:49:20.883Z,71.89
2022-12-31T11:52:28.652Z,72.53
2022-12-31T11:55:15.962Z,72.61
2022-12-31T11:57:50.732Z,72.31
2022-12-31T12:00:26.782Z,71.75
2022-12-31T12:03:06.373Z,71.22
2022-12-31T12:05:36.496Z,70.50
2022-12-31T12:08:04.465Z,70.11
2022-12-31T12:10:46.880Z,70.00
2022-12-31T12:13:17.753Z,69.90
2022-12-31T12:15:51.473Z,69.84
2022-12-31T12:18:47.043Z,69.98
2022-12-31T12:21:21.908Z,70.77
2022-12-31T12:24:03.988Z,71.30
2022-12-31T12:26:41.683Z,71.44
2022-12-31T12:29:34.795Z,71.56
2022-12-31T12:32:21.971Z,71.53
2022-12-31T12:34:50.330Z,71.72
2022-12-31T12:37:24.284Z,71.69
2022-12-31T12:40:09.565Z,71.92
2022-12-31T12:42:51.257Z,72.20
2022-12-31T12:45:36.508Z,72.98
2022-12-31T12:48:21.897Z,72.93
2022-12-31T12:50:50.346Z,72.66
2022-12-31T12:54:18.551Z,72.84
2022-12-31T12:57:04.481Z,72.83
2022-12-31T13:00:01.830Z,73.02
2022-12-31T13:03:10.540Z,73.11
2022-12-31T13:06:13.662Z,73.10
2022-12-31T13:09:16.277Z,73.46
2022-12-31T13:12:07.052Z,73.62
2022-12-31T13:14:57.173Z,73.97
2022-12-31T13:18:05.166Z,74.33
2022-12-31T13:20:56.061Z,74.40
2022-12-31T13:23:47.526Z,74.42
2022-12-31T13:26:38.188Z,74.50
2022-12-31T13:29:17.314Z,74.50
2022-12-31T13:31:48.961Z,74.11
2022-12-31T13:34:29.951Z,74.23
2022-12-31T13:37:11.846Z,74.28
2022-12-31T13:39:44.940Z,74.35
2022-12-31T13:42:28.751Z,74.78
2022-12-31T13:45:04.259Z,75.13
2022-12-31T13:47:39.147Z,75.31
2022-12-31T13:50:25.685Z,75.44
2022-12-31T13:53:00.188Z,74.28
2022-12-31T13:55:40.301Z,73.18
2022-12-31T13:58:37.251Z,72.38
2022-12-31T14:01:46.357Z,71.84
2022-12-31T14:04:39.423Z,71.40
2022-12-31T14:07:20.108Z,71.25
2022-12-31T14:09:48.121Z,71.19
2022-12-31T14:12:30.045Z,71.28
2022-12-31T14:15:20.782Z,71.76
2022-12-31T14:18:05.980Z,71.65
2022-12-31T14:21:11.694Z,71.89
2022-12-31T14:23:56.419Z,71.47
2022-12-31T14:26:40.095Z,71.82
2022-12-31T14:29:11.162Z,71.75
2022-12-31T14:31:54.355Z,71.40
2022-12-31T14:34:56.244Z,71.33
2022-12-31T14:37:45.858Z,71.41
2022-12-31T14:41:03.161Z,71.62
2022-12-31T14:44:01.135Z,71.83
2022-12-31T14:46:52.105Z,71.88
2022-12-31T14:50:17.144Z,72.71
2022-12-31T14:53:06.519Z,73.33
2022-12-31T14:55:42.979Z,73.72
2022-12-31T14:58:43.695Z,73.78
2022-12-31T15:01:19.102Z,73.77
2022-12-31T15:03:47.291Z,74.11
2022-12-31T15:07:06.561Z,73.73
2022-12-31T15:10:02.287Z,73.64
2022-12-31T15:12:56.506Z,73.79
2022-12-31T15:15:53.283Z,73.73
2022-12-31T15:18:38.735Z,73.39
2022-12-31T15:21:34.999Z,73.46
2022-12-31T15:24:25.579Z,73.53
2022-12-31T15:27:02.158Z,73.23
2022-12-31T15:29:36.581Z,73.42
2022-12-31T15:32:10.037Z,73.53
2022-12-31T15:34:38.003Z,73.36
2022-12-31T15:37:29.975Z,73.22
2022-12-31T15:40:29.347Z,73.16
2022-12-31T15:43:19.397Z,73.35
2022-12-31T15:45:48.463Z,73.10
2022-12-31T15:48:52.655Z,73.08
2022-12-31T15:51:30.090Z,73.43
2022-12-31T15:54:01.034Z,73.77
2022-12-31T15:56:41.795Z,73.92
2022-12-31T15:59:17.192Z,73.34
2022-12-31T16:01:47.847Z,73.73
2022-12-31T16:05:20.716Z,74.08
2022-12-31T16:08:59.301Z,74.25
2022-12-31T16:11:30.839Z,74.28
2022-12-31T16:14:00.127Z,74.37
2022-12-31T16:16:38.246Z,73.99
2022-12-31T16:19:51.814Z,73.58
2022-12-31T16:22:37.067Z,72.94
2022-12-31T16:28:09.284Z,72.06
2022-12-31T16:31:07.085Z,72.18
2022-12-31T16:33:35.572Z,72.82
2022-12-31T16:36:05.352Z,73.11
2022-12-31T16:38:37.906Z,73.20
2022-12-31T16:41:21.033Z,73.22
2022-12-31T16:43:52.107Z,73.48
2022-12-31T16:46:20.427Z,73.27
2022-12-31T16:49:09.161Z,72.95
2022-12-31T16:51:38.239Z,72.96
2022-12-31T16:54:21.437Z,72.88
2022-12-31T16:56:50.147Z,72.72
2022-12-31T16:59:34.768Z,72.76
2022-12-31T17:02:17.609Z,72.72
2022-12-31T17:04:56.052Z,72.88
2022-12-31T17:07:32.431Z,71.99
2022-12-31T17:10:07.761Z,71.48
2022-12-31T17:13:25.336Z,70.93
2022-12-31T17:15:43.306Z,69.18
2022-12-31T17:18:26.409Z,69.08
2022-12-31T17:21:04.420Z,68.09
2022-12-31T17:23:42.597Z,68.37
2022-12-31T17:26:15.576Z,67.54
2022-12-31T17:28:50.249Z,66.84
2022-12-31T17:31:45.297Z,67.06
2022-12-31T17:34:23.299Z,67.06
2022-12-31T17:37:10.552Z,66.95
2022-12-31T17:40:40.943Z,67.01
2022-12-31T17:42:52.201Z,66.77
2022-12-31T17:45:23.508Z,66.76
2022-12-31T17:47:58.474Z,66.85
2022-12-31T17:50:28.239Z,67.06
2022-12-31T17:53:02.387Z,67.16
2022-12-31T17:55:30.776Z,67.31
2022-12-31T17:58:03.901Z,66.96
2022-12-31T18:00:33.679Z,67.30
2022-12-31T18:03:01.977Z,67.39
2022-12-31T18:05:30.756Z,67.37
2022-12-31T18:07:58.752Z,67.60
2022-12-31T18:10:31.812Z,67.93
2022-12-31T18:13:08.527Z,67.61
2022-12-31T18:15:37.101Z,67.57
2022-12-31T18:18:27.120Z,67.87
2022-12-31T18:21:09.391Z,67.54
2022-12-31T18:23:46.897Z,66.86
2022-12-31T18:26:25.662Z,66.16
2022-12-31T18:28:54.010Z,65.71
2022-12-31T18:31:32.866Z,65.34
2022-12-31T18:34:01.295Z,65.04
2022-12-31T18:36:30.025Z,65.13
2022-12-31T18:38:58.424Z,65.16
2022-12-31T18:41:33.453Z,65.51
2022-12-31T18:44:13.409Z,65.49
2022-12-31T18:46:43.728Z,65.00
2022-12-31T18:49:14.934Z,65.10
2022-12-31T18:51:43.183Z,65.33
2022-12-31T18:54:17.052Z,65.29
2022-12-31T18:56:51.300Z,65.71
2022-12-31T18:59:22.286Z,65.78
2022-12-31T19:01:50.732Z,65.99
2022-12-31T19:04:27.640Z,66.36
2022-12-31T19:06:57.100Z,66.78
2022-12-31T19:12:15.205Z,67.09
2022-12-31T19:14:45.815Z,67.37
2022-12-31T19:17:14.676Z,67.31
2022-12-31T19:19:42.922Z,67.24
2022-12-31T19:22:18.153Z,67.16
2022-12-31T19:24:46.503Z,66.97
2022-12-31T19:27:15.071Z,66.91
2022-12-31T19:29:46.198Z,67.15
2022-12-31T19:32:22.893Z,67.49
2022-12-31T19:34:51.269Z,67.57
2022-12-31T19:37:21.009Z,67.91
2022-12-31T19:39:48.959Z,67.93
2022-12-31T19:42:16.915Z,67.99
2022-12-31T19:44:45.169Z,67.61
2022-12-31T19:47:14.160Z,67.66
2022-12-31T19:49:44.645Z,67.41
2022-12-31T19:52:14.011Z,67.58
2022-12-31T19:54:42.132Z,67.52
2022-12-31T19:57:10.367Z,68.27
2022-12-31T19:59:43.528Z,68.20
2022-12-31T20:02:11.555Z,68.05
2022-12-31T20:04:39.704Z,68.53
2022-12-31T20:07:07.575Z,68.83
2022-12-31T20:09:35.463Z,68.60
2022-12-31T20:12:03.524Z,68.69
2022-12-31T20:14:33.195Z,68.50
2022-12-31T20:17:01.368Z,68.66
2022-12-31T20:19:29.396Z,69.07
2022-12-31T20:21:57.231Z,69.65
2022-12-31T20:24:25.188Z,69.73
2022-12-31T20:26:53.037Z,69.85
2022-12-31T20:29:21.106Z,69.76
2022-12-31T20:31:48.983Z,69.85
2022-12-31T20:34:16.885Z,70.17
2022-12-31T20:36:44.767Z,70.11
2022-12-31T20:39:12.759Z,70.34
2022-12-31T20:41:40.654Z,70.69
2022-12-31T20:44:08.618Z,70.94
2022-12-31T20:46:37.176Z,71.11
2022-12-31T20:49:05.722Z,71.46
2022-12-31T20:51:35.442Z,71.94
2022-12-31T20:54:08.631Z,72.00
2022-12-31T20:56:39.756Z,72.10
2022-12-31T20:59:10.073Z,72.44
2022-12-31T21:02:18.941Z,72.08
2022-12-31T21:04:26.858Z,72.00
2022-12-31T21:06:55.002Z,71.88
2022-12-31T21:09:22.877Z,71.78
2022-12-31T21:12:09.400Z,71.66
2022-12-31T21:14:42.824Z,71.46
2022-12-31T21:17:12.599Z,71.44
2022-12-31T21:19:40.516Z,71.48
2022-12-31T21:22:08.778Z,71.43
2022-12-31T21:24:36.752Z,70.93
2022-12-31T21:27:05.484Z,70.51
2022-12-31T21:29:35.532Z,70.20
2022-12-31T21:32:04.980Z,69.64
2022-12-31T21:34:33.380Z,69.67
2022-12-31T21:37:01.312Z,69.34
2022-12-31T21:39:29.230Z,69.10
2022-12-31T21:41:58.440Z,69.19
2022-12-31T21:44:28.449Z,69.20
2022-12-31T21:47:36.515Z,68.95
2022-12-31T21:50:07.641Z,68.53
2022-12-31T21:52:38.593Z,67.64
2022-12-31T21:55:26.081Z,67.42
2022-12-31T22:01:03.768Z,67.44
2022-12-31T22:03:32.462Z,67.07
2022-12-31T22:06:12.932Z,67.08
2022-12-31T22:08:43.920Z,67.17
2022-12-31T22:11:13.708Z,67.01
2022-12-31T22:13:41.894Z,66.96
2022-12-31T22:16:10.323Z,67.28
2022-12-31T22:18:40.665Z,67.29
2022-12-31T22:21:20.401Z,67.25
2022-12-31T22:23:52.279Z,67.28
2022-12-31T22:26:24.284Z,67.56
2022-12-31T22:28:52.800Z,67.58
2022-12-31T22:31:26.714Z,67.33
2022-12-31T22:33:54.697Z,67.52
2022-12-31T22:36:24.280Z,67.35
2022-12-31T22:38:58.324Z,67.40
2022-12-31T22:41:27.904Z,67.23
2022-12-31T22:44:03.157Z,67.03
2022-12-31T22:46:34.929Z,66.88
2022-12-31T22:49:04.424Z,66.78
2022-12-31T22:51:55.963Z,66.79
2022-12-31T22:54:21.581Z,66.66
2022-12-31T22:56:59.581Z,66.57
2022-12-31T22:59:28.598Z,66.54
2022-12-31T23:01:56.942Z,66.24
2022-12-31T23:04:24.946Z,65.90
2022-12-31T23:06:52.933Z,65.81
2022-12-31T23:09:40.062Z,65.45
2022-12-31T23:12:10.370Z,65.63
2022-12-31T23:14:57.231Z,65.77
2022-12-31T23:17:46.465Z,65.90
2022-12-31T23:20:37.316Z,66.20
2022-12-31T23:23:10.114Z,66.38
2022-12-31T23:25:51.121Z,66.10
2022-12-31T23:28:25.129Z,65.76
2022-12-31T23:30:53.800Z,65.56
2022-12-31T23:33:25.552Z,66.46
2022-12-31T23:36:11.597Z,67.06
2022-12-31T23:38:39.458Z,68.03
2022-12-31T23:41:16.897Z,68.80
2022-12-31T23:43:45.653Z,68.85
2022-12-31T23:46:14.966Z,68.94
2022-12-31T23:48:43.678Z,69.15
2022-12-31T23:51:11.808Z,69.07
2022-12-31T23:53:39.960Z,69.22
2022-12-31T23:56:22.826Z,69.07
2022-12-31T23:58:56.105Z,68.78
